sensor_id;sensor_type;location;lat;lon;timestamp;pressure;altitude;pressure_sealevel;temperature;humidity
10720;BME280;5411;58.386;15.560;2023-08-12T00:00:52;100810.00;;;14.45;100.00
10720;BME280;5411;58.386;15.560;2023-08-12T00:03:21;100811.47;;;14.41;100.00
10720;BME280;5411;58.386;15.560;2023-08-12T00:05:52;100810.22;;;14.44;100.00
10720;BME280;5411;58.386;15.560;2023-08-12T00:08:23;100819.94;;;14.45;100.00
10720;BME280;5411;58.386;15.560;2023-08-12T00:10:53;100817.03;;;14.46;100.00
10720;BME280;5411;58.386;15.560;2023-08-12T00:13:21;100813.91;;;14.49;100.00
10720;BME280;5411;58.386;15.560;2023-08-12T00:15:49;100821.13;;;14.55;100.00
10720;BME280;5411;58.386;15.560;2023-08-12T00:18:21;100805.56;;;14.57;100.00
10720;BME280;5411;58.386;15.560;2023-08-12T00:20:52;100811.13;;;14.63;100.00
10720;BME280;5411;58.386;15.560;2023-08-12T00:23:24;100814.59;;;14.70;100.00
10720;BME280;5411;58.386;15.560;2023-08-12T00:25:57;100818.06;;;14.77;100.00
10720;BME280;5411;58.386;15.560;2023-08-12T00:28:26;100815.75;;;14.80;100.00
10720;BME280;5411;58.386;15.560;2023-08-12T00:30:55;100805.97;;;14.86;100.00
10720;BME280;5411;58.386;15.560;2023-08-12T00:33:24;100799.94;;;14.90;100.00
10720;BME280;5411;58.386;15.560;2023-08-12T00:35:53;100799.03;;;14.96;100.00
10720;BME280;5411;58.386;15.560;2023-08-12T00:38:21;100806.47;;;15.01;100.00
10720;BME280;5411;58.386;15.560;2023-08-12T00:40:50;100804.38;;;15.03;100.00
10720;BME280;5411;58.386;15.560;2023-08-12T00:43:19;100812.00;;;15.06;100.00
10720;BME280;5411;58.386;15.560;2023-08-12T00:45:51;100802.88;;;15.07;100.00
10720;BME280;5411;58.386;15.560;2023-08-12T00:48:19;100808.88;;;15.09;100.00
10720;BME280;5411;58.386;15.560;2023-08-12T00:50:47;100805.34;;;15.09;100.00
10720;BME280;5411;58.386;15.560;2023-08-12T00:53:19;100802.88;;;15.07;100.00
10720;BME280;5411;58.386;15.560;2023-08-12T00:55:50;100806.41;;;15.08;100.00
10720;BME280;5411;58.386;15.560;2023-08-12T00:58:20;100797.72;;;15.06;100.00
10720;BME280;5411;58.386;15.560;2023-08-12T01:00:49;100807.00;;;15.10;100.00
10720;BME280;5411;58.386;15.560;2023-08-12T01:03:21;100805.75;;;15.12;100.00
10720;BME280;5411;58.386;15.560;2023-08-12T01:05:52;100802.41;;;15.17;100.00
10720;BME280;5411;58.386;15.560;2023-08-12T01:08:21;100801.09;;;15.19;100.00
10720;BME280;5411;58.386;15.560;2023-08-12T01:10:52;100805.91;;;15.17;100.00
10720;BME280;5411;58.386;15.560;2023-08-12T01:13:32;100785.97;;;15.18;100.00
10720;BME280;5411;58.386;15.560;2023-08-12T01:16:03;100780.38;;;15.20;100.00
10720;BME280;5411;58.386;15.560;2023-08-12T01:18:33;100774.97;;;15.20;100.00
10720;BME280;5411;58.386;15.560;2023-08-12T01:21:08;100775.56;;;15.22;100.00
10720;BME280;5411;58.386;15.560;2023-08-12T01:23:46;100775.34;;;15.23;100.00
10720;BME280;5411;58.386;15.560;2023-08-12T01:26:15;100770.34;;;15.27;100.00
10720;BME280;5411;58.386;15.560;2023-08-12T01:28:43;100754.22;;;15.20;100.00
10720;BME280;5411;58.386;15.560;2023-08-12T01:31:15;100757.31;;;15.24;100.00
10720;BME280;5411;58.386;15.560;2023-08-12T01:33:49;100760.63;;;15.26;100.00
10720;BME280;5411;58.386;15.560;2023-08-12T01:36:20;100774.25;;;15.31;100.00
10720;BME280;5411;58.386;15.560;2023-08-12T01:38:51;100773.66;;;15.29;100.00
10720;BME280;5411;58.386;15.560;2023-08-12T01:41:21;100774.84;;;15.33;100.00
10720;BME280;5411;58.386;15.560;2023-08-12T01:43:59;100771.09;;;15.34;100.00
10720;BME280;5411;58.386;15.560;2023-08-12T01:46:28;100763.81;;;15.34;100.00
10720;BME280;5411;58.386;15.560;2023-08-12T01:48:56;100769.22;;;15.34;100.00
10720;BME280;5411;58.386;15.560;2023-08-12T01:51:25;100771.69;;;15.36;100.00
10720;BME280;5411;58.386;15.560;2023-08-12T01:53:55;100765.25;;;15.37;100.00
10720;BME280;5411;58.386;15.560;2023-08-12T01:56:25;100770.44;;;15.39;100.00
10720;BME280;5411;58.386;15.560;2023-08-12T01:58:56;100768.56;;;15.39;100.00
10720;BME280;5411;58.386;15.560;2023-08-12T02:01:24;100764.00;;;15.40;100.00
10720;BME280;5411;58.386;15.560;2023-08-12T02:03:53;100769.16;;;15.41;100.00
10720;BME280;5411;58.386;15.560;2023-08-12T02:06:22;100769.78;;;15.43;100.00
10720;BME280;5411;58.386;15.560;2023-08-12T02:08:52;100764.00;;;15.40;100.00
10720;BME280;5411;58.386;15.560;2023-08-12T02:11:22;100761.22;;;15.46;100.00
10720;BME280;5411;58.386;15.560;2023-08-12T02:13:50;100761.44;;;15.45;100.00
10720;BME280;5411;58.386;15.560;2023-08-12T02:16:18;100750.06;;;15.43;100.00
10720;BME280;5411;58.386;15.560;2023-08-12T02:18:48;100750.19;;;15.48;100.00
10720;BME280;5411;58.386;15.560;2023-08-12T02:21:17;100753.72;;;15.48;100.00
10720;BME280;5411;58.386;15.560;2023-08-12T02:23:45;100756.38;;;15.55;100.00
10720;BME280;5411;58.386;15.560;2023-08-12T02:26:13;100752.63;;;15.56;100.00
10720;BME280;5411;58.386;15.560;2023-08-12T02:28:45;100752.16;;;15.59;100.00
10720;BME280;5411;58.386;15.560;2023-08-12T02:31:15;100759.81;;;15.62;100.00
10720;BME280;5411;58.386;15.560;2023-08-12T02:33:43;100761.84;;;15.66;100.00
10720;BME280;5411;58.386;15.560;2023-08-12T02:36:12;100748.34;;;15.66;100.00
10720;BME280;5411;58.386;15.560;2023-08-12T02:38:40;100746.72;;;15.65;100.00
10720;BME280;5411;58.386;15.560;2023-08-12T02:41:09;100736.13;;;15.64;100.00
10720;BME280;5411;58.386;15.560;2023-08-12T02:43:37;100730.75;;;15.64;100.00
10720;BME280;5411;58.386;15.560;2023-08-12T02:46:10;100731.94;;;15.68;100.00
10720;BME280;5411;58.386;15.560;2023-08-12T02:48:39;100739.00;;;15.69;100.00
10720;BME280;5411;58.386;15.560;2023-08-12T02:51:08;100728.19;;;15.69;100.00
10720;BME280;5411;58.386;15.560;2023-08-12T02:53:39;100724.19;;;15.72;100.00
10720;BME280;5411;58.386;15.560;2023-08-12T02:56:10;100724.78;;;15.74;100.00
10720;BME280;5411;58.386;15.560;2023-08-12T02:58:38;100718.34;;;15.75;100.00
10720;BME280;5411;58.386;15.560;2023-08-12T03:01:07;100721.88;;;15.75;100.00
10720;BME280;5411;58.386;15.560;2023-08-12T03:03:37;100719.78;;;15.77;100.00
10720;BME280;5411;58.386;15.560;2023-08-12T03:06:05;100717.47;;;15.81;100.00
10720;BME280;5411;58.386;15.560;2023-08-12T03:08:34;100716.19;;;15.83;100.00
10720;BME280;5411;58.386;15.560;2023-08-12T03:11:04;100727.53;;;15.85;100.00
10720;BME280;5411;58.386;15.560;2023-08-12T03:13:32;100724.63;;;15.87;100.00
10720;BME280;5411;58.386;15.560;2023-08-12T03:16:00;100728.53;;;15.91;100.00
10720;BME280;5411;58.386;15.560;2023-08-12T03:18:31;100724.53;;;15.93;100.00
10720;BME280;5411;58.386;15.560;2023-08-12T03:21:05;100730.78;;;15.94;100.00
10720;BME280;5411;58.386;15.560;2023-08-12T03:23:33;100726.78;;;15.96;100.00
10720;BME280;5411;58.386;15.560;2023-08-12T03:26:02;100721.13;;;15.98;100.00
10720;BME280;5411;58.386;15.560;2023-08-12T03:28:32;100713.88;;;15.98;100.00
10720;BME280;5411;58.386;15.560;2023-08-12T03:31:00;100712.00;;;15.99;100.00
10720;BME280;5411;58.386;15.560;2023-08-12T03:33:31;100706.38;;;16.00;100.00
10720;BME280;5411;58.386;15.560;2023-08-12T03:36:02;100715.06;;;16.02;100.00
10720;BME280;5411;58.386;15.560;2023-08-12T03:38:30;100711.69;;;16.07;100.00
10720;BME280;5411;58.386;15.560;2023-08-12T03:41:02;100702.31;;;16.10;100.00
10720;BME280;5411;58.386;15.560;2023-08-12T03:43:30;100709.00;;;16.19;100.00
10720;BME280;5411;58.386;15.560;2023-08-12T03:46:00;100711.84;;;16.24;100.00
10720;BME280;5411;58.386;15.560;2023-08-12T03:48:29;100708.44;;;16.28;100.00
10720;BME280;5411;58.386;15.560;2023-08-12T03:50:57;100712.34;;;16.32;100.00
10720;BME280;5411;58.386;15.560;2023-08-12T03:53:27;100707.63;;;16.39;100.00
10720;BME280;5411;58.386;15.560;2023-08-12T03:55:55;100706.13;;;16.44;100.00
10720;BME280;5411;58.386;15.560;2023-08-12T03:58:24;100709.78;;;16.49;100.00
10720;BME280;5411;58.386;15.560;2023-08-12T04:00:55;100710.59;;;16.50;100.00
10720;BME280;5411;58.386;15.560;2023-08-12T04:03:26;100709.88;;;16.54;100.00
10720;BME280;5411;58.386;15.560;2023-08-12T04:05:56;100711.53;;;16.55;100.00
10720;BME280;5411;58.386;15.560;2023-08-12T04:08:24;100712.13;;;16.57;100.00
10720;BME280;5411;58.386;15.560;2023-08-12T04:10:57;100716.03;;;16.61;100.00
10720;BME280;5411;58.386;15.560;2023-08-12T04:13:26;100717.47;;;16.64;100.00
10720;BME280;5411;58.386;15.560;2023-08-12T04:15:57;100705.00;;;16.63;100.00
10720;BME280;5411;58.386;15.560;2023-08-12T04:18:28;100689.97;;;16.67;100.00
10720;BME280;5411;58.386;15.560;2023-08-12T04:20:59;100690.78;;;16.67;100.00
10720;BME280;5411;58.386;15.560;2023-08-12T04:23:28;100689.13;;;16.66;100.00
10720;BME280;5411;58.386;15.560;2023-08-12T04:26:01;100679.88;;;16.62;100.00
10720;BME280;5411;58.386;15.560;2023-08-12T04:28:30;100687.50;;;16.65;100.00
10720;BME280;5411;58.386;15.560;2023-08-12T04:30:58;100683.03;;;16.71;100.00
10720;BME280;5411;58.386;15.560;2023-08-12T04:33:27;100682.56;;;16.74;100.00
10720;BME280;5411;58.386;15.560;2023-08-12T04:35:56;100681.84;;;16.79;100.00
10720;BME280;5411;58.386;15.560;2023-08-12T04:38:25;100692.44;;;16.80;100.00
10720;BME280;5411;58.386;15.560;2023-08-12T04:40:56;100688.66;;;16.81;100.00
10720;BME280;5411;58.386;15.560;2023-08-12T04:43:26;100696.78;;;16.81;100.00
10720;BME280;5411;58.386;15.560;2023-08-12T04:45:54;100694.31;;;16.80;100.00
10720;BME280;5411;58.386;15.560;2023-08-12T04:48:28;100683.16;;;16.76;100.00
10720;BME280;5411;58.386;15.560;2023-08-12T04:50:59;100697.59;;;16.82;100.00
10720;BME280;5411;58.386;15.560;2023-08-12T04:53:32;100690.09;;;16.84;100.00
10720;BME280;5411;58.386;15.560;2023-08-12T04:56:01;100679.63;;;16.87;100.00
10720;BME280;5411;58.386;15.560;2023-08-12T04:58:33;100685.72;;;16.94;100.00
10720;BME280;5411;58.386;15.560;2023-08-12T05:01:04;100678.78;;;16.98;100.00
10720;BME280;5411;58.386;15.560;2023-08-12T05:03:36;100671.13;;;17.07;100.00
10720;BME280;5411;58.386;15.560;2023-08-12T05:06:05;100673.56;;;17.20;100.00
10720;BME280;5411;58.386;15.560;2023-08-12T05:08:37;100677.78;;;17.39;100.00
10720;BME280;5411;58.386;15.560;2023-08-12T05:11:05;100674.78;;;17.53;100.00
10720;BME280;5411;58.386;15.560;2023-08-12T05:13:40;100679.81;;;17.61;100.00
10720;BME280;5411;58.386;15.560;2023-08-12T05:16:14;100670.53;;;17.68;100.00
10720;BME280;5411;58.386;15.560;2023-08-12T05:18:46;100665.13;;;17.68;100.00
10720;BME280;5411;58.386;15.560;2023-08-12T05:21:14;100679.06;;;17.77;100.00
10720;BME280;5411;58.386;15.560;2023-08-12T05:23:48;100666.78;;;17.86;100.00
10720;BME280;5411;58.386;15.560;2023-08-12T05:26:17;100673.53;;;18.00;100.00
10720;BME280;5411;58.386;15.560;2023-08-12T05:28:53;100670.50;;;18.13;100.00
10720;BME280;5411;58.386;15.560;2023-08-12T05:31:24;100667.56;;;18.15;100.00
10720;BME280;5411;58.386;15.560;2023-08-12T05:33:54;100669.69;;;18.13;100.00
10720;BME280;5411;58.386;15.560;2023-08-12T05:36:23;100671.56;;;18.12;100.00
10720;BME280;5411;58.386;15.560;2023-08-12T05:38:59;100671.81;;;18.11;100.00
10720;BME280;5411;58.386;15.560;2023-08-12T05:41:30;100669.63;;;18.08;100.00
10720;BME280;5411;58.386;15.560;2023-08-12T05:44:04;100669.63;;;18.08;100.00
10720;BME280;5411;58.386;15.560;2023-08-12T05:46:35;100661.75;;;18.06;100.00
10720;BME280;5411;58.386;15.560;2023-08-12T05:49:05;100671.75;;;18.06;100.00
10720;BME280;5411;58.386;15.560;2023-08-12T05:51:33;100672.81;;;18.05;100.00
10720;BME280;5411;58.386;15.560;2023-08-12T05:54:03;100666.31;;;18.06;100.00
10720;BME280;5411;58.386;15.560;2023-08-12T05:56:31;100671.03;;;18.10;100.00
10720;BME280;5411;58.386;15.560;2023-08-12T05:59:03;100664.84;;;18.15;100.00
10720;BME280;5411;58.386;15.560;2023-08-12T06:01:34;100662.56;;;18.24;100.00
10720;BME280;5411;58.386;15.560;2023-08-12T06:04:03;100657.47;;;18.27;100.00
10720;BME280;5411;58.386;15.560;2023-08-12T06:06:32;100660.28;;;18.32;100.00
10720;BME280;5411;58.386;15.560;2023-08-12T06:09:06;100655.72;;;18.38;100.00
10720;BME280;5411;58.386;15.560;2023-08-12T06:11:34;100661.81;;;18.45;100.00
10720;BME280;5411;58.386;15.560;2023-08-12T06:14:05;100657.31;;;18.50;100.00
10720;BME280;5411;58.386;15.560;2023-08-12T06:16:33;100656.91;;;18.59;100.00
10720;BME280;5411;58.386;15.560;2023-08-12T06:19:04;100650.50;;;18.65;100.00
10720;BME280;5411;58.386;15.560;2023-08-12T06:21:34;100657.31;;;18.67;100.00
10720;BME280;5411;58.386;15.560;2023-08-12T06:24:03;100652.78;;;18.73;100.00
10720;BME280;5411;58.386;15.560;2023-08-12T06:26:33;100648.56;;;18.82;100.00
10720;BME280;5411;58.386;15.560;2023-08-12T06:29:02;100653.31;;;18.92;100.00
10720;BME280;5411;58.386;15.560;2023-08-12T06:31:34;100651.25;;;18.99;100.00
10720;BME280;5411;58.386;15.560;2023-08-12T06:34:03;100644.25;;;19.03;100.00
10720;BME280;5411;58.386;15.560;2023-08-12T06:36:31;100638.38;;;19.11;100.00
10720;BME280;5411;58.386;15.560;2023-08-12T06:39:01;100644.19;;;19.19;100.00
10720;BME280;5411;58.386;15.560;2023-08-12T06:41:30;100641.09;;;19.33;100.00
10720;BME280;5411;58.386;15.560;2023-08-12T06:43:59;100643.16;;;19.47;100.00
10720;BME280;5411;58.386;15.560;2023-08-12T06:46:30;100646.81;;;19.58;100.00
10720;BME280;5411;58.386;15.560;2023-08-12T06:49:01;100640.66;;;19.63;100.00
10720;BME280;5411;58.386;15.560;2023-08-12T06:51:29;100642.84;;;19.66;100.00
10720;BME280;5411;58.386;15.560;2023-08-12T06:53:57;100637.16;;;19.67;100.00
10720;BME280;5411;58.386;15.560;2023-08-12T06:56:26;100651.34;;;19.74;100.00
10720;BME280;5411;58.386;15.560;2023-08-12T06:58:56;100641.06;;;19.76;100.00
10720;BME280;5411;58.386;15.560;2023-08-12T07:01:24;100648.72;;;19.84;100.00
10720;BME280;5411;58.386;15.560;2023-08-12T07:03:54;100643.88;;;19.86;100.00
10720;BME280;5411;58.386;15.560;2023-08-12T07:06:27;100635.16;;;19.84;100.00
10720;BME280;5411;58.386;15.560;2023-08-12T07:08:58;100648.19;;;19.82;100.00
10720;BME280;5411;58.386;15.560;2023-08-12T07:11:26;100644.59;;;19.77;100.00
10720;BME280;5411;58.386;15.560;2023-08-12T07:13:54;100655.69;;;19.70;100.00
10720;BME280;5411;58.386;15.560;2023-08-12T07:16:23;100651.81;;;19.66;100.00
10720;BME280;5411;58.386;15.560;2023-08-12T07:18:57;100649.34;;;19.65;100.00
10720;BME280;5411;58.386;15.560;2023-08-12T07:21:31;100652.56;;;19.62;100.00
10720;BME280;5411;58.386;15.560;2023-08-12T07:24:01;100639.25;;;19.60;100.00
10720;BME280;5411;58.386;15.560;2023-08-12T07:26:30;100643.09;;;19.64;100.00
10720;BME280;5411;58.386;15.560;2023-08-12T07:29:00;100638.56;;;19.70;100.00
10720;BME280;5411;58.386;15.560;2023-08-12T07:31:29;100638.91;;;19.78;100.00
10720;BME280;5411;58.386;15.560;2023-08-12T07:33:57;100636.84;;;19.90;100.00
10720;BME280;5411;58.386;15.560;2023-08-12T07:36:33;100634.53;;;20.04;100.00
10720;BME280;5411;58.386;15.560;2023-08-12T07:39:22;100633.28;;;20.17;100.00
10720;BME280;5411;58.386;15.560;2023-08-12T07:41:50;100631.50;;;20.33;100.00
10720;BME280;5411;58.386;15.560;2023-08-12T07:44:18;100632.78;;;20.57;100.00
10720;BME280;5411;58.386;15.560;2023-08-12T07:46:47;100632.94;;;20.77;100.00
10720;BME280;5411;58.386;15.560;2023-08-12T07:49:18;100633.84;;;20.98;100.00
10720;BME280;5411;58.386;15.560;2023-08-12T07:51:49;100630.69;;;21.21;100.00
10720;BME280;5411;58.386;15.560;2023-08-12T07:54:23;100627.78;;;21.48;100.00
10720;BME280;5411;58.386;15.560;2023-08-12T07:56:55;100630.84;;;21.67;100.00
10720;BME280;5411;58.386;15.560;2023-08-12T07:59:23;100634.69;;;21.91;100.00
10720;BME280;5411;58.386;15.560;2023-08-12T08:01:54;100627.91;;;22.14;100.00
10720;BME280;5411;58.386;15.560;2023-08-12T08:04:25;100633.63;;;22.38;100.00
10720;BME280;5411;58.386;15.560;2023-08-12T08:06:59;100619.41;;;22.51;100.00
10720;BME280;5411;58.386;15.560;2023-08-12T08:09:27;100629.75;;;22.64;100.00
10720;BME280;5411;58.386;15.560;2023-08-12T08:11:56;100631.66;;;22.69;98.06
10720;BME280;5411;58.386;15.560;2023-08-12T08:14:27;100625.38;;;22.84;96.66
10720;BME280;5411;58.386;15.560;2023-08-12T08:16:56;100611.66;;;23.04;96.59
10720;BME280;5411;58.386;15.560;2023-08-12T08:19:25;100618.69;;;23.20;93.30
10720;BME280;5411;58.386;15.560;2023-08-12T08:21:56;100617.81;;;23.35;93.80
10720;BME280;5411;58.386;15.560;2023-08-12T08:24:28;100617.47;;;23.46;92.15
10720;BME280;5411;58.386;15.560;2023-08-12T08:26:59;100613.56;;;23.63;91.36
10720;BME280;5411;58.386;15.560;2023-08-12T08:29:27;100620.66;;;23.69;88.26
10720;BME280;5411;58.386;15.560;2023-08-12T08:31:56;100617.56;;;23.80;87.18
10720;BME280;5411;58.386;15.560;2023-08-12T08:34:24;100605.44;;;23.92;88.05
10720;BME280;5411;58.386;15.560;2023-08-12T08:36:52;100613.75;;;24.10;88.39
10720;BME280;5411;58.386;15.560;2023-08-12T08:39:21;100616.44;;;24.21;89.04
10720;BME280;5411;58.386;15.560;2023-08-12T08:41:53;100608.97;;;24.31;84.49
10720;BME280;5411;58.386;15.560;2023-08-12T08:44:22;100617.34;;;24.40;86.55
10720;BME280;5411;58.386;15.560;2023-08-12T08:46:53;100614.00;;;24.48;83.05
10720;BME280;5411;58.386;15.560;2023-08-12T08:49:25;100611.97;;;24.59;82.97
10720;BME280;5411;58.386;15.560;2023-08-12T08:51:56;100627.06;;;24.56;81.22
10720;BME280;5411;58.386;15.560;2023-08-12T08:54:24;100626.19;;;24.61;82.16
10720;BME280;5411;58.386;15.560;2023-08-12T08:56:55;100620.84;;;24.74;83.03
10720;BME280;5411;58.386;15.560;2023-08-12T08:59:40;100601.75;;;24.93;80.88
10720;BME280;5411;58.386;15.560;2023-08-12T09:02:17;100623.25;;;25.05;80.63
10720;BME280;5411;58.386;15.560;2023-08-12T09:04:45;100632.81;;;25.07;79.70
10720;BME280;5411;58.386;15.560;2023-08-12T09:07:18;100620.44;;;25.10;78.98
10720;BME280;5411;58.386;15.560;2023-08-12T09:09:52;100621.03;;;25.07;78.68
10720;BME280;5411;58.386;15.560;2023-08-12T09:12:23;100618.72;;;24.95;78.03
10720;BME280;5411;58.386;15.560;2023-08-12T09:14:54;100622.94;;;24.82;78.21
10720;BME280;5411;58.386;15.560;2023-08-12T09:17:28;100625.25;;;24.70;79.95
10720;BME280;5411;58.386;15.560;2023-08-12T09:19:57;100619.94;;;24.55;78.58
10720;BME280;5411;58.386;15.560;2023-08-12T09:22:25;100628.53;;;24.43;79.62
10720;BME280;5411;58.386;15.560;2023-08-12T09:24:56;100624.53;;;24.36;78.46
10720;BME280;5411;58.386;15.560;2023-08-12T09:27:27;100616.06;;;24.32;79.96
10720;BME280;5411;58.386;15.560;2023-08-12T09:29:55;100615.72;;;24.39;79.13
10720;BME280;5411;58.386;15.560;2023-08-12T09:32:24;100624.44;;;24.46;77.08
10720;BME280;5411;58.386;15.560;2023-08-12T09:34:54;100621.13;;;24.49;77.94
10720;BME280;5411;58.386;15.560;2023-08-12T09:37:29;100617.97;;;24.61;78.20
10720;BME280;5411;58.386;15.560;2023-08-12T09:40:01;100615.38;;;24.74;78.75
10720;BME280;5411;58.386;15.560;2023-08-12T09:42:33;100607.09;;;24.79;78.34
10720;BME280;5411;58.386;15.560;2023-08-12T09:45:02;100609.53;;;24.81;77.46
10720;BME280;5411;58.386;15.560;2023-08-12T09:47:30;100612.03;;;24.77;77.98
10720;BME280;5411;58.386;15.560;2023-08-12T09:50:05;100600.75;;;24.84;76.18
10720;BME280;5411;58.386;15.560;2023-08-12T09:52:34;100609.09;;;24.98;76.32
10720;BME280;5411;58.386;15.560;2023-08-12T09:55:04;100608.38;;;25.11;76.53
10720;BME280;5411;58.386;15.560;2023-08-12T09:57:42;100598.94;;;25.22;74.67
10720;BME280;5411;58.386;15.560;2023-08-12T10:00:13;100600.72;;;25.32;75.97
10720;BME280;5411;58.386;15.560;2023-08-12T10:02:44;100598.00;;;25.50;74.08
10720;BME280;5411;58.386;15.560;2023-08-12T10:05:20;100598.63;;;25.66;73.70
10720;BME280;5411;58.386;15.560;2023-08-12T10:07:51;100595.41;;;25.78;73.40
10720;BME280;5411;58.386;15.560;2023-08-12T10:10:22;100605.03;;;25.75;73.08
10720;BME280;5411;58.386;15.560;2023-08-12T10:12:55;100605.09;;;25.70;72.67
10720;BME280;5411;58.386;15.560;2023-08-12T10:15:25;100610.41;;;25.67;73.46
10720;BME280;5411;58.386;15.560;2023-08-12T10:17:55;100610.59;;;25.70;72.77
10720;BME280;5411;58.386;15.560;2023-08-12T10:20:25;100603.63;;;25.97;75.36
10720;BME280;5411;58.386;15.560;2023-08-12T10:23:12;100598.97;;;26.11;72.12
10720;BME280;5411;58.386;15.560;2023-08-12T10:25:44;100605.00;;;26.26;72.32
10720;BME280;5411;58.386;15.560;2023-08-12T10:28:14;100589.63;;;26.31;71.01
10720;BME280;5411;58.386;15.560;2023-08-12T10:30:44;100608.22;;;26.34;69.42
10720;BME280;5411;58.386;15.560;2023-08-12T10:33:14;100613.81;;;26.42;70.38
10720;BME280;5411;58.386;15.560;2023-08-12T10:35:44;100609.47;;;26.55;69.38
10720;BME280;5411;58.386;15.560;2023-08-12T10:38:14;100613.56;;;26.57;68.00
10720;BME280;5411;58.386;15.560;2023-08-12T10:40:45;100607.53;;;26.55;67.43
10720;BME280;5411;58.386;15.560;2023-08-12T10:43:17;100615.69;;;26.47;68.14
10720;BME280;5411;58.386;15.560;2023-08-12T10:45:47;100613.19;;;26.32;69.17
10720;BME280;5411;58.386;15.560;2023-08-12T10:48:21;100614.31;;;26.12;69.95
10720;BME280;5411;58.386;15.560;2023-08-12T10:50:53;100621.84;;;25.87;70.71
10720;BME280;5411;58.386;15.560;2023-08-12T10:53:25;100621.88;;;25.69;72.01
10720;BME280;5411;58.386;15.560;2023-08-12T10:55:58;100621.31;;;25.48;72.77
10720;BME280;5411;58.386;15.560;2023-08-12T10:58:35;100626.31;;;25.22;73.69
10720;BME280;5411;58.386;15.560;2023-08-12T11:01:13;100623.84;;;25.02;74.46
10720;BME280;5411;58.386;15.560;2023-08-12T11:03:42;100622.88;;;24.88;75.08
10720;BME280;5411;58.386;15.560;2023-08-12T11:06:12;100635.34;;;24.75;75.09
10720;BME280;5411;58.386;15.560;2023-08-12T11:08:46;100639.06;;;24.60;76.31
10720;BME280;5411;58.386;15.560;2023-08-12T11:11:19;100628.44;;;24.54;77.42
10720;BME280;5411;58.386;15.560;2023-08-12T11:13:54;100632.56;;;24.51;77.58
10720;BME280;5411;58.386;15.560;2023-08-12T11:16:31;100633.63;;;24.55;78.46
10720;BME280;5411;58.386;15.560;2023-08-12T11:19:05;100638.50;;;24.63;78.42
10720;BME280;5411;58.386;15.560;2023-08-12T11:21:36;100629.09;;;24.69;77.99
10720;BME280;5411;58.386;15.560;2023-08-12T11:24:05;100625.78;;;24.72;77.60
10720;BME280;5411;58.386;15.560;2023-08-12T11:26:33;100635.94;;;24.72;77.74
10720;BME280;5411;58.386;15.560;2023-08-12T11:29:08;100632.19;;;24.63;77.63
10720;BME280;5411;58.386;15.560;2023-08-12T11:31:37;100632.00;;;24.54;78.28
10720;BME280;5411;58.386;15.560;2023-08-12T11:34:05;100633.72;;;24.45;78.36
10720;BME280;5411;58.386;15.560;2023-08-12T11:36:35;100625.63;;;24.35;79.44
10720;BME280;5411;58.386;15.560;2023-08-12T11:39:04;100631.13;;;24.30;79.41
10720;BME280;5411;58.386;15.560;2023-08-12T11:41:33;100630.66;;;24.23;80.49
10720;BME280;5411;58.386;15.560;2023-08-12T11:44:06;100629.28;;;24.20;80.88
10720;BME280;5411;58.386;15.560;2023-08-12T11:46:39;100625.19;;;24.23;81.31
10720;BME280;5411;58.386;15.560;2023-08-12T11:49:07;100629.53;;;24.24;82.59
10720;BME280;5411;58.386;15.560;2023-08-12T11:51:37;100630.66;;;24.23;83.64
10720;BME280;5411;58.386;15.560;2023-08-12T11:54:06;100633.41;;;24.17;85.77
10720;BME280;5411;58.386;15.560;2023-08-12T11:56:36;100640.06;;;24.06;84.83
10720;BME280;5411;58.386;15.560;2023-08-12T11:59:15;100627.84;;;23.94;85.60
10720;BME280;5411;58.386;15.560;2023-08-12T12:01:49;100626.31;;;23.77;85.54
10720;BME280;5411;58.386;15.560;2023-08-12T12:04:17;100626.69;;;23.66;86.54
10720;BME280;5411;58.386;15.560;2023-08-12T12:06:50;100619.66;;;23.55;88.52
10720;BME280;5411;58.386;15.560;2023-08-12T12:09:20;100627.00;;;23.49;88.94
10720;BME280;5411;58.386;15.560;2023-08-12T12:11:52;100620.47;;;23.45;89.00
10720;BME280;5411;58.386;15.560;2023-08-12T12:14:24;100612.88;;;23.42;89.15
10720;BME280;5411;58.386;15.560;2023-08-12T12:16:53;100607.69;;;23.40;88.81
10720;BME280;5411;58.386;15.560;2023-08-12T12:19:22;100619.97;;;23.38;89.16
10720;BME280;5411;58.386;15.560;2023-08-12T12:21:52;100616.16;;;23.34;90.16
10720;BME280;5411;58.386;15.560;2023-08-12T12:24:20;100615.13;;;23.30;91.18
10720;BME280;5411;58.386;15.560;2023-08-12T12:26:49;100616.50;;;23.22;89.62
10720;BME280;5411;58.386;15.560;2023-08-12T12:29:19;100613.78;;;23.17;89.67
10720;BME280;5411;58.386;15.560;2023-08-12T12:31:49;100624.19;;;23.15;91.50
10720;BME280;5411;58.386;15.560;2023-08-12T12:34:17;100621.75;;;23.14;92.66
10720;BME280;5411;58.386;15.560;2023-08-12T12:36:45;100616.81;;;23.16;93.15
10720;BME280;5411;58.386;15.560;2023-08-12T12:39:14;100624.47;;;23.14;93.19
10720;BME280;5411;58.386;15.560;2023-08-12T12:41:42;100614.09;;;23.10;91.72
10720;BME280;5411;58.386;15.560;2023-08-12T12:44:14;100608.63;;;23.10;91.92
10720;BME280;5411;58.386;15.560;2023-08-12T12:46:42;100612.78;;;23.03;91.58
10720;BME280;5411;58.386;15.560;2023-08-12T12:49:12;100613.06;;;23.01;91.11
10720;BME280;5411;58.386;15.560;2023-08-12T12:51:40;100612.47;;;23.04;91.31
10720;BME280;5411;58.386;15.560;2023-08-12T12:54:09;100605.63;;;23.07;90.86
10720;BME280;5411;58.386;15.560;2023-08-12T12:56:37;100611.09;;;23.12;90.79
10720;BME280;5411;58.386;15.560;2023-08-12T12:59:06;100599.28;;;23.22;90.96